sensor_id;sensor_type;location;lat;lon;timestamp;P1;durP1;ratioP1;P2;durP2;ratioP2
11203;SDS011;5659;49.408;11.116;2022-12-10T00:01:44;46.43;;;25.73;;
11203;SDS011;5659;49.408;11.116;2022-12-10T00:04:11;45.47;;;26.70;;
11203;SDS011;5659;49.408;11.116;2022-12-10T00:06:37;43.53;;;24.93;;
11203;SDS011;5659;49.408;11.116;2022-12-10T00:09:04;45.47;;;25.80;;
11203;SDS011;5659;49.408;11.116;2022-12-10T00:11:30;45.60;;;27.07;;
11203;SDS011;5659;49.408;11.116;2022-12-10T00:13:57;40.83;;;25.10;;
11203;SDS011;5659;49.408;11.116;2022-12-10T00:16:23;39.37;;;24.83;;
11203;SDS011;5659;49.408;11.116;2022-12-10T00:18:50;40.70;;;25.33;;
11203;SDS011;5659;49.408;11.116;2022-12-10T00:21:20;40.40;;;24.27;;
11203;SDS011;5659;49.408;11.116;2022-12-10T00:23:46;44.77;;;25.53;;
11203;SDS011;5659;49.408;11.116;2022-12-10T00:26:16;41.77;;;25.27;;
11203;SDS011;5659;49.408;11.116;2022-12-10T00:28:43;47.77;;;27.10;;
11203;SDS011;5659;49.408;11.116;2022-12-10T00:31:10;42.47;;;25.47;;
11203;SDS011;5659;49.408;11.116;2022-12-10T00:33:36;43.83;;;27.83;;
11203;SDS011;5659;49.408;11.116;2022-12-10T00:36:06;44.13;;;28.30;;
11203;SDS011;5659;49.408;11.116;2022-12-10T00:38:33;44.30;;;28.00;;
11203;SDS011;5659;49.408;11.116;2022-12-10T00:40:59;45.30;;;27.67;;
11203;SDS011;5659;49.408;11.116;2022-12-10T00:43:25;45.87;;;28.27;;
11203;SDS011;5659;49.408;11.116;2022-12-10T00:45:52;49.03;;;28.40;;
11203;SDS011;5659;49.408;11.116;2022-12-10T00:48:18;48.57;;;28.03;;
11203;SDS011;5659;49.408;11.116;2022-12-10T00:50:44;50.73;;;28.50;;
11203;SDS011;5659;49.408;11.116;2022-12-10T00:53:10;53.43;;;29.40;;
11203;SDS011;5659;49.408;11.116;2022-12-10T00:55:36;47.53;;;28.90;;
11203;SDS011;5659;49.408;11.116;2022-12-10T00:58:02;47.43;;;29.27;;
11203;SDS011;5659;49.408;11.116;2022-12-10T01:00:28;46.13;;;28.73;;
11203;SDS011;5659;49.408;11.116;2022-12-10T01:02:54;47.37;;;27.10;;
11203;SDS011;5659;49.408;11.116;2022-12-10T01:05:20;47.37;;;29.47;;
11203;SDS011;5659;49.408;11.116;2022-12-10T01:07:45;49.93;;;28.10;;
11203;SDS011;5659;49.408;11.116;2022-12-10T01:10:11;46.93;;;28.63;;
11203;SDS011;5659;49.408;11.116;2022-12-10T01:12:37;44.37;;;28.73;;
11203;SDS011;5659;49.408;11.116;2022-12-10T01:15:03;44.37;;;28.00;;
11203;SDS011;5659;49.408;11.116;2022-12-10T01:17:29;49.27;;;28.97;;
11203;SDS011;5659;49.408;11.116;2022-12-10T01:19:55;44.23;;;27.97;;
11203;SDS011;5659;49.408;11.116;2022-12-10T01:22:21;47.10;;;27.93;;
11203;SDS011;5659;49.408;11.116;2022-12-10T01:24:47;44.77;;;28.57;;
11203;SDS011;5659;49.408;11.116;2022-12-10T01:27:13;49.77;;;29.63;;
11203;SDS011;5659;49.408;11.116;2022-12-10T01:29:39;44.97;;;28.57;;
11203;SDS011;5659;49.408;11.116;2022-12-10T01:32:05;44.67;;;28.23;;
11203;SDS011;5659;49.408;11.116;2022-12-10T01:34:31;47.60;;;27.90;;
11203;SDS011;5659;49.408;11.116;2022-12-10T01:36:57;48.10;;;28.40;;
11203;SDS011;5659;49.408;11.116;2022-12-10T01:39:23;51.00;;;29.33;;
11203;SDS011;5659;49.408;11.116;2022-12-10T01:41:51;46.87;;;29.33;;
11203;SDS011;5659;49.408;11.116;2022-12-10T01:46:45;45.93;;;28.97;;
11203;SDS011;5659;49.408;11.116;2022-12-10T01:49:12;45.83;;;28.40;;
11203;SDS011;5659;49.408;11.116;2022-12-10T01:51:39;43.93;;;28.60;;
11203;SDS011;5659;49.408;11.116;2022-12-10T01:54:07;49.40;;;27.50;;
11203;SDS011;5659;49.408;11.116;2022-12-10T01:56:38;48.30;;;28.93;;
11203;SDS011;5659;49.408;11.116;2022-12-10T01:59:04;48.57;;;27.73;;
11203;SDS011;5659;49.408;11.116;2022-12-10T02:01:46;46.57;;;27.87;;
11203;SDS011;5659;49.408;11.116;2022-12-10T02:04:29;43.97;;;28.87;;
11203;SDS011;5659;49.408;11.116;2022-12-10T02:09:52;41.23;;;27.60;;
11203;SDS011;5659;49.408;11.116;2022-12-10T02:12:22;45.97;;;27.10;;
11203;SDS011;5659;49.408;11.116;2022-12-10T02:17:26;45.37;;;28.03;;
11203;SDS011;5659;49.408;11.116;2022-12-10T02:19:58;45.03;;;27.83;;
11203;SDS011;5659;49.408;11.116;2022-12-10T02:22:26;48.13;;;27.60;;
11203;SDS011;5659;49.408;11.116;2022-12-10T02:24:54;50.00;;;28.53;;
11203;SDS011;5659;49.408;11.116;2022-12-10T02:29:47;42.77;;;27.93;;
11203;SDS011;5659;49.408;11.116;2022-12-10T02:32:14;45.10;;;28.73;;
11203;SDS011;5659;49.408;11.116;2022-12-10T02:34:43;45.40;;;27.20;;
11203;SDS011;5659;49.408;11.116;2022-12-10T02:37:17;45.57;;;27.50;;
11203;SDS011;5659;49.408;11.116;2022-12-10T02:39:46;42.43;;;27.70;;
11203;SDS011;5659;49.408;11.116;2022-12-10T02:42:15;47.33;;;28.97;;
11203;SDS011;5659;49.408;11.116;2022-12-10T02:44:42;51.60;;;29.57;;
11203;SDS011;5659;49.408;11.116;2022-12-10T02:47:08;43.47;;;27.40;;
11203;SDS011;5659;49.408;11.116;2022-12-10T02:49:35;44.00;;;27.87;;
11203;SDS011;5659;49.408;11.116;2022-12-10T02:52:06;43.50;;;27.90;;
11203;SDS011;5659;49.408;11.116;2022-12-10T03:00:04;44.77;;;27.90;;
11203;SDS011;5659;49.408;11.116;2022-12-10T03:07:49;52.33;;;28.33;;
11203;SDS011;5659;49.408;11.116;2022-12-10T03:12:48;41.77;;;26.83;;
11203;SDS011;5659;49.408;11.116;2022-12-10T03:15:16;42.60;;;27.40;;
11203;SDS011;5659;49.408;11.116;2022-12-10T03:17:43;43.60;;;27.97;;
11203;SDS011;5659;49.408;11.116;2022-12-10T03:20:12;42.87;;;27.17;;
11203;SDS011;5659;49.408;11.116;2022-12-10T03:22:38;44.80;;;28.57;;
11203;SDS011;5659;49.408;11.116;2022-12-10T03:25:06;45.30;;;26.93;;
11203;SDS011;5659;49.408;11.116;2022-12-10T03:27:32;46.07;;;27.87;;
11203;SDS011;5659;49.408;11.116;2022-12-10T03:29:59;46.83;;;28.90;;
11203;SDS011;5659;49.408;11.116;2022-12-10T03:32:26;40.43;;;26.93;;
11203;SDS011;5659;49.408;11.116;2022-12-10T03:34:53;41.80;;;26.17;;
11203;SDS011;5659;49.408;11.116;2022-12-10T03:37:19;48.90;;;28.27;;
11203;SDS011;5659;49.408;11.116;2022-12-10T03:39:46;46.50;;;27.87;;
11203;SDS011;5659;49.408;11.116;2022-12-10T03:42:12;48.17;;;27.97;;
11203;SDS011;5659;49.408;11.116;2022-12-10T03:44:38;40.57;;;26.17;;
11203;SDS011;5659;49.408;11.116;2022-12-10T03:47:09;38.33;;;26.23;;
11203;SDS011;5659;49.408;11.116;2022-12-10T03:49:35;43.73;;;28.37;;
11203;SDS011;5659;49.408;11.116;2022-12-10T03:52:02;46.43;;;27.53;;
11203;SDS011;5659;49.408;11.116;2022-12-10T03:54:28;42.93;;;26.23;;
11203;SDS011;5659;49.408;11.116;2022-12-10T03:56:53;40.17;;;26.57;;
11203;SDS011;5659;49.408;11.116;2022-12-10T03:59:20;41.20;;;25.17;;
11203;SDS011;5659;49.408;11.116;2022-12-10T04:01:46;38.07;;;25.40;;
11203;SDS011;5659;49.408;11.116;2022-12-10T04:04:12;39.80;;;26.20;;
11203;SDS011;5659;49.408;11.116;2022-12-10T04:06:38;40.93;;;25.40;;
11203;SDS011;5659;49.408;11.116;2022-12-10T04:09:05;40.20;;;25.87;;
11203;SDS011;5659;49.408;11.116;2022-12-10T04:11:31;37.80;;;24.73;;
11203;SDS011;5659;49.408;11.116;2022-12-10T04:13:57;39.27;;;25.27;;
11203;SDS011;5659;49.408;11.116;2022-12-10T04:16:41;39.50;;;25.17;;
11203;SDS011;5659;49.408;11.116;2022-12-10T04:19:09;37.50;;;24.13;;
11203;SDS011;5659;49.408;11.116;2022-12-10T04:21:35;42.13;;;25.97;;
11203;SDS011;5659;49.408;11.116;2022-12-10T04:24:21;39.83;;;25.27;;
11203;SDS011;5659;49.408;11.116;2022-12-10T04:27:08;38.80;;;24.57;;
11203;SDS011;5659;49.408;11.116;2022-12-10T04:29:34;39.53;;;24.43;;
11203;SDS011;5659;49.408;11.116;2022-12-10T04:32:00;38.87;;;24.90;;
11203;SDS011;5659;49.408;11.116;2022-12-10T04:34:26;39.30;;;25.97;;
11203;SDS011;5659;49.408;11.116;2022-12-10T04:36:52;39.97;;;25.07;;
11203;SDS011;5659;49.408;11.116;2022-12-10T04:39:18;40.90;;;25.13;;
11203;SDS011;5659;49.408;11.116;2022-12-10T04:41:45;39.53;;;25.67;;
11203;SDS011;5659;49.408;11.116;2022-12-10T04:44:11;38.53;;;25.07;;
11203;SDS011;5659;49.408;11.116;2022-12-10T04:46:37;42.70;;;25.37;;
11203;SDS011;5659;49.408;11.116;2022-12-10T04:49:03;42.60;;;25.40;;
11203;SDS011;5659;49.408;11.116;2022-12-10T04:51:30;41.80;;;25.97;;
11203;SDS011;5659;49.408;11.116;2022-12-10T04:53:56;37.70;;;25.60;;
11203;SDS011;5659;49.408;11.116;2022-12-10T04:56:22;42.13;;;25.43;;
11203;SDS011;5659;49.408;11.116;2022-12-10T04:58:48;41.27;;;25.30;;
11203;SDS011;5659;49.408;11.116;2022-12-10T05:01:14;38.37;;;24.97;;
11203;SDS011;5659;49.408;11.116;2022-12-10T05:03:40;41.73;;;25.47;;
11203;SDS011;5659;49.408;11.116;2022-12-10T05:06:07;41.13;;;24.53;;
11203;SDS011;5659;49.408;11.116;2022-12-10T05:08:34;39.50;;;25.03;;
11203;SDS011;5659;49.408;11.116;2022-12-10T05:11:01;42.17;;;24.60;;
11203;SDS011;5659;49.408;11.116;2022-12-10T05:13:27;37.33;;;24.50;;
11203;SDS011;5659;49.408;11.116;2022-12-10T05:15:53;42.23;;;26.07;;
11203;SDS011;5659;49.408;11.116;2022-12-10T05:18:19;42.23;;;24.93;;
11203;SDS011;5659;49.408;11.116;2022-12-10T05:20:45;41.23;;;24.73;;
11203;SDS011;5659;49.408;11.116;2022-12-10T05:23:11;41.57;;;25.17;;
11203;SDS011;5659;49.408;11.116;2022-12-10T05:28:24;44.47;;;25.70;;
11203;SDS011;5659;49.408;11.116;2022-12-10T05:30:50;43.67;;;25.90;;
11203;SDS011;5659;49.408;11.116;2022-12-10T05:33:16;38.73;;;25.73;;
11203;SDS011;5659;49.408;11.116;2022-12-10T05:35:42;40.40;;;25.10;;
11203;SDS011;5659;49.408;11.116;2022-12-10T05:38:08;43.53;;;25.93;;
11203;SDS011;5659;49.408;11.116;2022-12-10T05:40:38;45.17;;;27.20;;
11203;SDS011;5659;49.408;11.116;2022-12-10T05:43:04;43.20;;;26.87;;
11203;SDS011;5659;49.408;11.116;2022-12-10T05:45:33;47.67;;;27.03;;
11203;SDS011;5659;49.408;11.116;2022-12-10T05:47:59;40.07;;;25.57;;
11203;SDS011;5659;49.408;11.116;2022-12-10T05:50:26;43.10;;;26.53;;
11203;SDS011;5659;49.408;11.116;2022-12-10T05:52:52;47.60;;;27.33;;
11203;SDS011;5659;49.408;11.116;2022-12-10T05:55:18;44.47;;;25.40;;
11203;SDS011;5659;49.408;11.116;2022-12-10T05:57:44;42.23;;;26.80;;
11203;SDS011;5659;49.408;11.116;2022-12-10T06:00:10;43.27;;;25.27;;
11203;SDS011;5659;49.408;11.116;2022-12-10T06:02:36;42.43;;;25.63;;
11203;SDS011;5659;49.408;11.116;2022-12-10T06:05:02;43.03;;;26.37;;
11203;SDS011;5659;49.408;11.116;2022-12-10T06:07:29;40.83;;;24.97;;
11203;SDS011;5659;49.408;11.116;2022-12-10T06:09:55;42.10;;;25.67;;
11203;SDS011;5659;49.408;11.116;2022-12-10T06:14:55;42.53;;;26.17;;
11203;SDS011;5659;49.408;11.116;2022-12-10T06:17:21;40.63;;;26.70;;
11203;SDS011;5659;49.408;11.116;2022-12-10T06:19:47;51.50;;;26.90;;
11203;SDS011;5659;49.408;11.116;2022-12-10T06:22:13;39.03;;;25.20;;
11203;SDS011;5659;49.408;11.116;2022-12-10T06:24:39;42.60;;;26.27;;
11203;SDS011;5659;49.408;11.116;2022-12-10T06:27:05;42.13;;;26.57;;
11203;SDS011;5659;49.408;11.116;2022-12-10T06:29:31;46.47;;;26.50;;
11203;SDS011;5659;49.408;11.116;2022-12-10T06:31:57;44.27;;;26.13;;
11203;SDS011;5659;49.408;11.116;2022-12-10T06:34:23;50.63;;;27.53;;
11203;SDS011;5659;49.408;11.116;2022-12-10T06:36:49;41.80;;;26.10;;
11203;SDS011;5659;49.408;11.116;2022-12-10T06:39:15;38.20;;;24.57;;
11203;SDS011;5659;49.408;11.116;2022-12-10T06:41:41;42.57;;;26.30;;
11203;SDS011;5659;49.408;11.116;2022-12-10T06:44:09;39.97;;;25.30;;
11203;SDS011;5659;49.408;11.116;2022-12-10T06:46:35;41.77;;;26.00;;
11203;SDS011;5659;49.408;11.116;2022-12-10T06:49:01;46.23;;;26.90;;
11203;SDS011;5659;49.408;11.116;2022-12-10T06:51:27;46.73;;;28.27;;
11203;SDS011;5659;49.408;11.116;2022-12-10T06:53:53;43.67;;;27.20;;
11203;SDS011;5659;49.408;11.116;2022-12-10T06:56:20;44.37;;;28.50;;
11203;SDS011;5659;49.408;11.116;2022-12-10T06:58:46;45.67;;;29.47;;
11203;SDS011;5659;49.408;11.116;2022-12-10T07:01:16;45.53;;;29.40;;
11203;SDS011;5659;49.408;11.116;2022-12-10T07:03:47;43.93;;;29.80;;
11203;SDS011;5659;49.408;11.116;2022-12-10T07:06:13;43.30;;;28.87;;
11203;SDS011;5659;49.408;11.116;2022-12-10T07:08:39;48.60;;;30.67;;
11203;SDS011;5659;49.408;11.116;2022-12-10T07:11:06;45.07;;;28.53;;
11203;SDS011;5659;49.408;11.116;2022-12-10T07:13:32;49.10;;;29.70;;
11203;SDS011;5659;49.408;11.116;2022-12-10T07:15:58;45.67;;;28.93;;
11203;SDS011;5659;49.408;11.116;2022-12-10T07:18:24;49.37;;;30.30;;
11203;SDS011;5659;49.408;11.116;2022-12-10T07:20:50;49.13;;;31.10;;
11203;SDS011;5659;49.408;11.116;2022-12-10T07:23:16;48.37;;;30.03;;
11203;SDS011;5659;49.408;11.116;2022-12-10T07:25:42;49.50;;;31.77;;
11203;SDS011;5659;49.408;11.116;2022-12-10T07:28:08;49.70;;;31.50;;
11203;SDS011;5659;49.408;11.116;2022-12-10T07:30:34;50.83;;;30.77;;
11203;SDS011;5659;49.408;11.116;2022-12-10T07:33:00;54.20;;;30.80;;
11203;SDS011;5659;49.408;11.116;2022-12-10T07:35:26;48.47;;;29.10;;
11203;SDS011;5659;49.408;11.116;2022-12-10T07:37:52;50.47;;;32.00;;
11203;SDS011;5659;49.408;11.116;2022-12-10T07:40:18;51.20;;;31.57;;
11203;SDS011;5659;49.408;11.116;2022-12-10T07:42:44;51.03;;;30.30;;
11203;SDS011;5659;49.408;11.116;2022-12-10T07:45:10;48.63;;;28.93;;
11203;SDS011;5659;49.408;11.116;2022-12-10T07:47:39;44.33;;;29.77;;
11203;SDS011;5659;49.408;11.116;2022-12-10T07:50:05;52.20;;;29.60;;
11203;SDS011;5659;49.408;11.116;2022-12-10T07:52:31;47.13;;;29.47;;
11203;SDS011;5659;49.408;11.116;2022-12-10T07:54:57;45.47;;;28.97;;
11203;SDS011;5659;49.408;11.116;2022-12-10T07:57:23;48.50;;;30.33;;
11203;SDS011;5659;49.408;11.116;2022-12-10T07:59:49;50.60;;;30.70;;
11203;SDS011;5659;49.408;11.116;2022-12-10T08:02:15;45.70;;;29.30;;
11203;SDS011;5659;49.408;11.116;2022-12-10T08:04:41;48.73;;;30.47;;
11203;SDS011;5659;49.408;11.116;2022-12-10T08:07:07;48.10;;;28.90;;
11203;SDS011;5659;49.408;11.116;2022-12-10T08:09:33;44.43;;;29.70;;
11203;SDS011;5659;49.408;11.116;2022-12-10T08:11:59;48.37;;;30.00;;
11203;SDS011;5659;49.408;11.116;2022-12-10T08:14:25;45.37;;;28.97;;
11203;SDS011;5659;49.408;11.116;2022-12-10T08:16:51;45.93;;;29.63;;
11203;SDS011;5659;49.408;11.116;2022-12-10T08:19:17;47.00;;;29.23;;
11203;SDS011;5659;49.408;11.116;2022-12-10T08:21:43;47.33;;;28.47;;
11203;SDS011;5659;49.408;11.116;2022-12-10T08:24:09;44.87;;;28.60;;
11203;SDS011;5659;49.408;11.116;2022-12-10T08:26:35;44.30;;;27.50;;
11203;SDS011;5659;49.408;11.116;2022-12-10T08:29:02;43.73;;;28.67;;
11203;SDS011;5659;49.408;11.116;2022-12-10T08:31:28;45.20;;;28.77;;
11203;SDS011;5659;49.408;11.116;2022-12-10T08:33:54;48.07;;;28.67;;
11203;SDS011;5659;49.408;11.116;2022-12-10T08:36:21;48.70;;;29.33;;
11203;SDS011;5659;49.408;11.116;2022-12-10T08:38:47;45.90;;;28.43;;
11203;SDS011;5659;49.408;11.116;2022-12-10T08:41:22;42.77;;;28.07;;
11203;SDS011;5659;49.408;11.116;2022-12-10T08:43:48;45.40;;;27.73;;
11203;SDS011;5659;49.408;11.116;2022-12-10T08:46:16;40.37;;;27.60;;
11203;SDS011;5659;49.408;11.116;2022-12-10T08:48:42;40.10;;;26.77;;
11203;SDS011;5659;49.408;11.116;2022-12-10T08:51:08;40.03;;;26.17;;
11203;SDS011;5659;49.408;11.116;2022-12-10T08:53:35;44.63;;;27.23;;
11203;SDS011;5659;49.408;11.116;2022-12-10T08:56:01;41.80;;;26.03;;
11203;SDS011;5659;49.408;11.116;2022-12-10T08:58:27;40.40;;;27.10;;
11203;SDS011;5659;49.408;11.116;2022-12-10T09:00:53;42.87;;;26.70;;
11203;SDS011;5659;49.408;11.116;2022-12-10T09:03:19;44.10;;;26.97;;
11203;SDS011;5659;49.408;11.116;2022-12-10T09:05:45;41.87;;;26.57;;
11203;SDS011;5659;49.408;11.116;2022-12-10T09:08:11;40.70;;;25.97;;
11203;SDS011;5659;49.408;11.116;2022-12-10T09:10:37;44.80;;;27.17;;
11203;SDS011;5659;49.408;11.116;2022-12-10T09:13:03;44.27;;;26.87;;
11203;SDS011;5659;49.408;11.116;2022-12-10T09:15:29;44.53;;;26.20;;
11203;SDS011;5659;49.408;11.116;2022-12-10T09:17:55;42.13;;;25.17;;
11203;SDS011;5659;49.408;11.116;2022-12-10T09:20:21;47.17;;;27.30;;
11203;SDS011;5659;49.408;11.116;2022-12-10T09:22:47;40.13;;;26.57;;
11203;SDS011;5659;49.408;11.116;2022-12-10T09:25:14;40.20;;;26.77;;
11203;SDS011;5659;49.408;11.116;2022-12-10T09:27:41;43.53;;;25.83;;
11203;SDS011;5659;49.408;11.116;2022-12-10T09:30:08;39.10;;;24.23;;
11203;SDS011;5659;49.408;11.116;2022-12-10T09:32:34;40.07;;;25.10;;
11203;SDS011;5659;49.408;11.116;2022-12-10T09:35:00;42.27;;;25.97;;
11203;SDS011;5659;49.408;11.116;2022-12-10T09:37:26;42.77;;;24.77;;
11203;SDS011;5659;49.408;11.116;2022-12-10T09:39:52;41.13;;;24.33;;
11203;SDS011;5659;49.408;11.116;2022-12-10T09:44:56;38.43;;;23.83;;
11203;SDS011;5659;49.408;11.116;2022-12-10T09:47:26;42.13;;;26.00;;
11203;SDS011;5659;49.408;11.116;2022-12-10T09:49:59;37.23;;;24.50;;
11203;SDS011;5659;49.408;11.116;2022-12-10T09:52:36;37.83;;;24.67;;
11203;SDS011;5659;49.408;11.116;2022-12-10T09:55:10;40.70;;;24.83;;
11203;SDS011;5659;49.408;11.116;2022-12-10T09:57:58;37.30;;;24.70;;
11203;SDS011;5659;49.408;11.116;2022-12-10T10:02:50;38.93;;;23.50;;
11203;SDS011;5659;49.408;11.116;2022-12-10T10:05:21;37.53;;;23.67;;
11203;SDS011;5659;49.408;11.116;2022-12-10T10:07:52;35.53;;;22.97;;
11203;SDS011;5659;49.408;11.116;2022-12-10T10:10:27;33.03;;;22.87;;
11203;SDS011;5659;49.408;11.116;2022-12-10T10:15:32;36.00;;;23.80;;
11203;SDS011;5659;49.408;11.116;2022-12-10T10:18:01;36.20;;;23.07;;
11203;SDS011;5659;49.408;11.116;2022-12-10T10:20:27;37.83;;;24.23;;
11203;SDS011;5659;49.408;11.116;2022-12-10T10:22:53;40.57;;;26.27;;
11203;SDS011;5659;49.408;11.116;2022-12-10T10:25:21;42.87;;;25.03;;
11203;SDS011;5659;49.408;11.116;2022-12-10T10:27:47;40.20;;;24.30;;
11203;SDS011;5659;49.408;11.116;2022-12-10T10:30:15;38.77;;;25.43;;
11203;SDS011;5659;49.408;11.116;2022-12-10T10:35:18;37.77;;;26.33;;
11203;SDS011;5659;49.408;11.116;2022-12-10T10:37:44;36.63;;;24.83;;
11203;SDS011;5659;49.408;11.116;2022-12-10T10:42:56;39.20;;;23.63;;
11203;SDS011;5659;49.408;11.116;2022-12-10T10:45:36;39.80;;;24.17;;
11203;SDS011;5659;49.408;11.116;2022-12-10T10:48:08;31.17;;;23.23;;
11203;SDS011;5659;49.408;11.116;2022-12-10T10:50:37;33.57;;;23.70;;
11203;SDS011;5659;49.408;11.116;2022-12-10T10:53:18;34.60;;;22.53;;
11203;SDS011;5659;49.408;11.116;2022-12-10T10:55:45;35.00;;;22.37;;
11203;SDS011;5659;49.408;11.116;2022-12-10T10:58:21;36.00;;;22.83;;
11203;SDS011;5659;49.408;11.116;2022-12-10T11:00:54;31.63;;;22.20;;
11203;SDS011;5659;49.408;11.116;2022-12-10T11:03:21;39.10;;;23.57;;
11203;SDS011;5659;49.408;11.116;2022-12-10T11:05:47;36.80;;;22.20;;
11203;SDS011;5659;49.408;11.116;2022-12-10T11:08:16;42.20;;;23.63;;
11203;SDS011;5659;49.408;11.116;2022-12-10T11:10:57;32.80;;;22.90;;
11203;SDS011;5659;49.408;11.116;2022-12-10T11:13:27;30.77;;;21.97;;
11203;SDS011;5659;49.408;11.116;2022-12-10T11:15:58;32.90;;;22.43;;
11203;SDS011;5659;49.408;11.116;2022-12-10T11:20:58;34.70;;;21.90;;
11203;SDS011;5659;49.408;11.116;2022-12-10T11:23:29;34.80;;;23.13;;
11203;SDS011;5659;49.408;11.116;2022-12-10T11:25:57;33.57;;;22.50;;
11203;SDS011;5659;49.408;11.116;2022-12-10T11:31:05;33.07;;;23.10;;
11203;SDS011;5659;49.408;11.116;2022-12-10T11:33:36;32.90;;;23.23;;
11203;SDS011;5659;49.408;11.116;2022-12-10T11:39:10;38.23;;;24.33;;
11203;SDS011;5659;49.408;11.116;2022-12-10T11:41:42;36.73;;;24.40;;
11203;SDS011;5659;49.408;11.116;2022-12-10T11:57:20;42.30;;;26.20;;
11203;SDS011;5659;49.408;11.116;2022-12-10T11:59:55;40.30;;;27.00;;
11203;SDS011;5659;49.408;11.116;2022-12-10T12:04:58;40.83;;;26.17;;
11203;SDS011;5659;49.408;11.116;2022-12-10T12:12:41;46.80;;;25.97;;
11203;SDS011;5659;49.408;11.116;2022-12-10T12:18:04;41.90;;;25.20;;
11203;SDS011;5659;49.408;11.116;2022-12-10T12:22:59;42.47;;;28.40;;
11203;SDS011;5659;49.408;11.116;2022-12-10T12:25:27;44.87;;;28.27;;
11203;SDS011;5659;49.408;11.116;2022-12-10T12:30:41;44.80;;;27.63;;
11203;SDS011;5659;49.408;11.116;2022-12-10T12:38:16;46.80;;;30.00;;
11203;SDS011;5659;49.408;11.116;2022-12-10T12:40:47;45.03;;;29.20;;
11203;SDS011;5659;49.408;11.116;2022-12-10T12:43:19;49.20;;;29.50;;
11203;SDS011;5659;49.408;11.116;2022-12-10T12:45:51;49.50;;;27.67;;
11203;SDS011;5659;49.408;11.116;2022-12-10T12:51:10;48.53;;;29.77;;
11203;SDS011;5659;49.408;11.116;2022-12-10T12:53:37;43.23;;;28.93;;
11203;SDS011;5659;49.408;11.116;2022-12-10T13:01:30;47.70;;;30.37;;
11203;SDS011;5659;49.408;11.116;2022-12-10T13:03:58;51.47;;;29.77;;
11203;SDS011;5659;49.408;11.116;2022-12-10T13:06:32;43.90;;;28.00;;
11203;SDS011;5659;49.408;11.116;2022-12-10T13:11:28;52.53;;;32.60;;
11203;SDS011;5659;49.408;11.116;2022-12-10T13:29:58;53.67;;;34.53;;
11203;SDS011;5659;49.408;11.116;2022-12-10T13:32:24;56.27;;;33.77;;
11203;SDS011;5659;49.408;11.116;2022-12-10T13:42:37;59.27;;;33.77;;
11203;SDS011;5659;49.408;11.116;2022-12-10T13:47:50;55.10;;;34.00;;
11203;SDS011;5659;49.408;11.116;2022-12-10T13:52:55;57.13;;;34.30;;
11203;SDS011;5659;49.408;11.116;2022-12-10T13:55:35;50.47;;;31.80;;
11203;SDS011;5659;49.408;11.116;2022-12-10T14:00:41;55.17;;;33.07;;
11203;SDS011;5659;49.408;11.116;2022-12-10T14:08:12;50.27;;;31.93;;
11203;SDS011;5659;49.408;11.116;2022-12-10T14:10:40;53.63;;;33.17;;
11203;SDS011;5659;49.408;11.116;2022-12-10T14:13:06;51.60;;;33.57;;
11203;SDS011;5659;49.408;11.116;2022-12-10T14:15:34;53.63;;;32.63;;
11203;SDS011;5659;49.408;11.116;2022-12-10T14:18:13;52.50;;;33.07;;
11203;SDS011;5659;49.408;11.116;2022-12-10T14:20:44;49.83;;;32.20;;
11203;SDS011;5659;49.408;11.116;2022-12-10T14:23:29;55.97;;;34.30;;
11203;SDS011;5659;49.408;11.116;2022-12-10T14:26:06;50.13;;;32.37;;
11203;SDS011;5659;49.408;11.116;2022-12-10T14:28:32;55.00;;;33.50;;
11203;SDS011;5659;49.408;11.116;2022-12-10T14:30:58;52.83;;;32.07;;
11203;SDS011;5659;49.408;11.116;2022-12-10T14:33:24;53.07;;;33.10;;
11203;SDS011;5659;49.408;11.116;2022-12-10T14:35:51;52.77;;;33.30;;
11203;SDS011;5659;49.408;11.116;2022-12-10T14:38:36;50.90;;;33.30;;
11203;SDS011;5659;49.408;11.116;2022-12-10T14:41:02;54.30;;;32.30;;
11203;SDS011;5659;49.408;11.116;2022-12-10T14:45:58;53.90;;;33.27;;
11203;SDS011;5659;49.408;11.116;2022-12-10T14:48:25;56.63;;;34.57;;
11203;SDS011;5659;49.408;11.116;2022-12-10T14:50:51;57.13;;;34.23;;
11203;SDS011;5659;49.408;11.116;2022-12-10T14:55:43;51.60;;;31.23;;
11203;SDS011;5659;49.408;11.116;2022-12-10T14:58:13;52.90;;;31.23;;
11203;SDS011;5659;49.408;11.116;2022-12-10T15:00:40;52.23;;;33.57;;
11203;SDS011;5659;49.408;11.116;2022-12-10T15:03:07;54.93;;;33.47;;
11203;SDS011;5659;49.408;11.116;2022-12-10T15:05:34;49.97;;;31.73;;
11203;SDS011;5659;49.408;11.116;2022-12-10T15:10:36;52.47;;;33.10;;
11203;SDS011;5659;49.408;11.116;2022-12-10T15:13:03;52.53;;;33.13;;
11203;SDS011;5659;49.408;11.116;2022-12-10T15:15:37;50.20;;;31.87;;
11203;SDS011;5659;49.408;11.116;2022-12-10T15:20:44;51.00;;;30.97;;
11203;SDS011;5659;49.408;11.116;2022-12-10T15:23:18;50.03;;;29.97;;
11203;SDS011;5659;49.408;11.116;2022-12-10T15:28:25;51.60;;;31.47;;
11203;SDS011;5659;49.408;11.116;2022-12-10T15:30:51;51.63;;;31.17;;
11203;SDS011;5659;49.408;11.116;2022-12-10T15:33:21;49.00;;;29.20;;
11203;SDS011;5659;49.408;11.116;2022-12-10T15:35:48;48.47;;;29.50;;
11203;SDS011;5659;49.408;11.116;2022-12-10T15:38:14;47.17;;;30.60;;
11203;SDS011;5659;49.408;11.116;2022-12-10T15:40:41;46.83;;;29.30;;
11203;SDS011;5659;49.408;11.116;2022-12-10T15:45:48;49.83;;;30.03;;
11203;SDS011;5659;49.408;11.116;2022-12-10T15:48:14;48.00;;;28.60;;
11203;SDS011;5659;49.408;11.116;2022-12-10T15:50:41;43.17;;;27.83;;
11203;SDS011;5659;49.408;11.116;2022-12-10T15:53:10;42.37;;;26.87;;
11203;SDS011;5659;49.408;11.116;2022-12-10T15:55:36;43.17;;;26.23;;
11203;SDS011;5659;49.408;11.116;2022-12-10T15:58:02;43.17;;;26.07;;
11203;SDS011;5659;49.408;11.116;2022-12-10T16:00:30;40.90;;;25.47;;
11203;SDS011;5659;49.408;11.116;2022-12-10T16:02:57;41.80;;;25.63;;
11203;SDS011;5659;49.408;11.116;2022-12-10T16:05:28;40.97;;;25.17;;
11203;SDS011;5659;49.408;11.116;2022-12-10T16:07:55;36.10;;;23.10;;
11203;SDS011;5659;49.408;11.116;2022-12-10T16:10:22;34.43;;;22.73;;
11203;SDS011;5659;49.408;11.116;2022-12-10T16:12:49;36.03;;;22.37;;
11203;SDS011;5659;49.408;11.116;2022-12-10T16:15:20;36.33;;;22.53;;
11203;SDS011;5659;49.408;11.116;2022-12-10T16:17:46;34.47;;;22.37;;
11203;SDS011;5659;49.408;11.116;2022-12-10T16:22:48;33.63;;;21.20;;
11203;SDS011;5659;49.408;11.116;2022-12-10T16:25:14;35.30;;;21.13;;
11203;SDS011;5659;49.408;11.116;2022-12-10T16:27:40;34.50;;;21.67;;
11203;SDS011;5659;49.408;11.116;2022-12-10T16:32:45;33.63;;;20.97;;
11203;SDS011;5659;49.408;11.116;2022-12-10T16:35:12;34.13;;;20.40;;
11203;SDS011;5659;49.408;11.116;2022-12-10T16:37:39;31.40;;;20.37;;
11203;SDS011;5659;49.408;11.116;2022-12-10T16:40:05;33.60;;;20.53;;
11203;SDS011;5659;49.408;11.116;2022-12-10T16:42:31;32.73;;;20.93;;
11203;SDS011;5659;49.408;11.116;2022-12-10T16:44:57;30.93;;;19.53;;
11203;SDS011;5659;49.408;11.116;2022-12-10T16:47:23;31.13;;;19.93;;
11203;SDS011;5659;49.408;11.116;2022-12-10T16:49:50;28.97;;;18.63;;
11203;SDS011;5659;49.408;11.116;2022-12-10T16:52:16;27.30;;;19.13;;
11203;SDS011;5659;49.408;11.116;2022-12-10T16:54:42;29.20;;;18.70;;
11203;SDS011;5659;49.408;11.116;2022-12-10T16:57:13;28.87;;;18.33;;